createdAt,value
2019-01-28T00:00:04.951Z,3.90
2019-01-28T00:02:34.341Z,3.90
2019-01-28T00:05:03.452Z,3.90
2019-01-28T00:07:32.477Z,3.90
2019-01-28T00:10:01.456Z,3.90
2019-01-28T00:12:30.380Z,3.80
2019-01-28T00:14:59.481Z,3.80
2019-01-28T00:17:28.538Z,3.80
2019-01-28T00:19:57.658Z,3.80
2019-01-28T00:22:26.691Z,3.80
2019-01-28T00:24:55.690Z,3.70
2019-01-28T00:27:24.778Z,3.70
2019-01-28T00:29:53.784Z,3.70
2019-01-28T00:32:22.806Z,3.60
2019-01-28T00:34:51.812Z,3.60
2019-01-28T00:37:20.870Z,3.60
2019-01-28T00:39:49.968Z,3.60
2019-01-28T00:42:18.996Z,3.60
2019-01-28T00:44:48.200Z,3.60
2019-01-28T00:47:17.226Z,3.60
2019-01-28T00:49:46.266Z,3.60
2019-01-28T00:52:15.340Z,3.60
2019-01-28T00:54:44.437Z,3.60
2019-01-28T00:57:13.395Z,3.60
2019-01-28T00:59:42.508Z,3.60
2019-01-28T01:02:11.586Z,3.60
2019-01-28T01:04:40.539Z,3.60
2019-01-28T01:07:09.590Z,3.60
2019-01-28T01:09:38.580Z,3.60
2019-01-28T01:12:07.571Z,3.50
2019-01-28T01:14:36.523Z,3.50
2019-01-28T01:17:05.517Z,3.50
2019-01-28T01:19:34.541Z,3.50
2019-01-28T01:22:03.632Z,3.50
2019-01-28T01:24:32.627Z,3.50
2019-01-28T01:27:01.705Z,3.50
2019-01-28T01:29:30.740Z,3.50
2019-01-28T01:31:59.839Z,3.50
2019-01-28T01:34:28.841Z,3.50
2019-01-28T01:36:57.951Z,3.50
2019-01-28T01:39:27.019Z,3.50
2019-01-28T01:41:56.089Z,3.50
2019-01-28T01:44:25.261Z,3.50
2019-01-28T01:46:54.257Z,3.50
2019-01-28T01:49:23.259Z,3.50
2019-01-28T01:51:52.319Z,3.40
2019-01-28T01:54:21.507Z,3.40
2019-01-28T01:56:50.557Z,3.40
2019-01-28T01:59:19.589Z,3.40
2019-01-28T02:01:48.508Z,3.40
2019-01-28T02:04:17.516Z,3.50
2019-01-28T02:06:46.656Z,3.50
2019-01-28T02:09:15.654Z,3.50
2019-01-28T02:11:44.645Z,3.50
2019-01-28T02:14:13.668Z,3.50
2019-01-28T02:16:42.678Z,3.50
2019-01-28T02:19:11.678Z,3.50
2019-01-28T02:21:40.576Z,3.50
2019-01-28T02:24:09.630Z,3.50
2019-01-28T02:26:38.746Z,3.50
2019-01-28T02:29:07.782Z,3.50
2019-01-28T02:31:36.858Z,3.50
2019-01-28T02:34:05.930Z,3.50
2019-01-28T02:36:35.045Z,3.50
2019-01-28T02:39:04.883Z,3.50
2019-01-28T02:41:33.948Z,3.50
2019-01-28T02:44:03.154Z,3.50
2019-01-28T02:46:32.292Z,3.50
2019-01-28T02:49:01.279Z,3.50
2019-01-28T02:51:30.382Z,3.60
2019-01-28T02:53:59.399Z,3.60
2019-01-28T02:56:28.409Z,3.70
2019-01-28T02:58:57.439Z,3.70
2019-01-28T03:01:26.519Z,3.70
2019-01-28T03:03:55.533Z,3.80
2019-01-28T03:06:24.533Z,3.80
2019-01-28T03:08:53.617Z,3.80
2019-01-28T03:11:22.592Z,3.80
2019-01-28T03:13:51.687Z,3.90
2019-01-28T03:16:20.781Z,3.90
2019-01-28T03:18:49.805Z,3.90
2019-01-28T03:21:18.872Z,4.00
2019-01-28T03:23:47.868Z,4.00
2019-01-28T03:26:16.930Z,4.00
2019-01-28T03:28:45.959Z,4.10
2019-01-28T03:31:15.057Z,4.10
2019-01-28T03:33:44.005Z,4.10
2019-01-28T03:36:13.061Z,4.10
2019-01-28T03:38:42.061Z,4.10
2019-01-28T03:41:11.181Z,4.10
2019-01-28T03:43:40.332Z,4.10
2019-01-28T03:46:09.898Z,4.10
2019-01-28T03:48:39.155Z,4.20
2019-01-28T03:51:08.154Z,4.20
2019-01-28T03:53:37.924Z,4.20
2019-01-28T03:56:06.985Z,4.20
2019-01-28T03:58:36.026Z,4.30
2019-01-28T04:01:05.036Z,4.40
2019-01-28T04:03:34.084Z,4.50
2019-01-28T04:06:03.176Z,4.60
2019-01-28T04:08:32.054Z,4.70
2019-01-28T04:11:00.998Z,4.70
2019-01-28T04:13:30.172Z,4.70
2019-01-28T04:15:59.308Z,4.80
2019-01-28T04:18:28.340Z,4.80
2019-01-28T04:20:59.783Z,4.80
2019-01-28T04:23:28.887Z,4.80
2019-01-28T04:25:57.839Z,4.80
2019-01-28T04:28:26.706Z,4.80
2019-01-28T04:30:55.767Z,4.80
2019-01-28T04:33:24.803Z,4.80
2019-01-28T04:35:53.851Z,4.80
2019-01-28T04:38:22.922Z,4.80
2019-01-28T04:40:51.937Z,4.80
2019-01-28T04:43:21.073Z,4.80
2019-01-28T04:45:50.115Z,4.80
2019-01-28T04:48:19.268Z,4.80
2019-01-28T04:50:48.257Z,4.90
2019-01-28T04:53:17.265Z,4.90
2019-01-28T04:55:46.275Z,4.90
2019-01-28T04:58:15.209Z,4.80
2019-01-28T05:00:44.253Z,4.80
2019-01-28T05:03:13.360Z,4.80
2019-01-28T05:05:42.392Z,4.90
2019-01-28T05:08:11.379Z,4.90
2019-01-28T05:10:40.392Z,4.90
2019-01-28T05:13:09.481Z,4.90
2019-01-28T05:15:38.505Z,4.90
2019-01-28T05:18:07.519Z,4.90
2019-01-28T05:20:36.642Z,4.80
2019-01-28T05:23:05.645Z,4.90
2019-01-28T05:25:34.643Z,4.90
2019-01-28T05:28:03.630Z,4.80
2019-01-28T05:30:32.647Z,4.90
2019-01-28T05:33:01.730Z,4.90
2019-01-28T05:35:30.694Z,4.90
2019-01-28T05:37:59.603Z,4.90
2019-01-28T05:40:29.118Z,4.90
2019-01-28T05:42:58.204Z,4.90
2019-01-28T05:45:27.273Z,4.90
2019-01-28T05:47:56.380Z,4.80
2019-01-28T05:50:25.563Z,4.80
2019-01-28T05:52:54.623Z,4.80
2019-01-28T05:55:23.609Z,4.90
2019-01-28T05:57:52.637Z,4.90
2019-01-28T06:00:43.613Z,5.00
2019-01-28T06:03:12.581Z,5.00
2019-01-28T06:05:41.637Z,5.00
2019-01-28T06:08:10.627Z,5.00
2019-01-28T06:10:39.721Z,5.00
2019-01-28T06:13:08.727Z,5.10
2019-01-28T06:15:37.869Z,5.00
2019-01-28T06:18:06.868Z,5.00
2019-01-28T06:20:35.849Z,5.00
2019-01-28T06:23:04.839Z,5.00
2019-01-28T06:25:33.947Z,5.00
2019-01-28T06:28:02.959Z,5.00
2019-01-28T06:30:32.237Z,5.00
2019-01-28T06:33:01.293Z,5.10
2019-01-28T06:35:30.349Z,5.00
2019-01-28T06:37:59.555Z,5.10
2019-01-28T06:40:33.617Z,5.10
2019-01-28T06:43:02.683Z,5.00
2019-01-28T06:45:31.669Z,5.00
2019-01-28T06:48:00.697Z,5.00
2019-01-28T06:50:29.710Z,5.00
2019-01-28T06:52:58.954Z,5.00
2019-01-28T06:55:27.997Z,5.10
2019-01-28T06:57:56.986Z,5.10
2019-01-28T07:00:30.950Z,5.10
2019-01-28T07:03:00.070Z,5.10
2019-01-28T07:05:29.138Z,5.10
2019-01-28T07:07:58.136Z,5.10
2019-01-28T07:10:27.334Z,5.10
2019-01-28T07:12:56.337Z,5.10
2019-01-28T07:15:25.339Z,5.10
2019-01-28T07:17:55.255Z,5.00
2019-01-28T07:20:28.288Z,5.10
2019-01-28T07:22:57.368Z,5.10
2019-01-28T07:25:26.456Z,5.10
2019-01-28T07:27:55.386Z,5.10
2019-01-28T07:30:27.450Z,5.10
2019-01-28T07:32:56.445Z,5.10
2019-01-28T07:35:25.424Z,5.00
2019-01-28T07:37:57.406Z,5.10
2019-01-28T07:40:26.470Z,5.00
2019-01-28T07:42:55.481Z,5.00
2019-01-28T07:45:26.733Z,5.00
2019-01-28T07:48:02.686Z,5.00
2019-01-28T07:50:26.518Z,5.00
2019-01-28T07:52:55.638Z,4.90
2019-01-28T07:55:24.637Z,4.80
2019-01-28T07:57:53.481Z,4.80
2019-01-28T08:00:24.706Z,4.70
2019-01-28T08:02:53.727Z,4.70
2019-01-28T08:05:22.649Z,4.70
2019-01-28T08:07:51.608Z,4.80
2019-01-28T08:10:20.757Z,4.80
2019-01-28T08:12:49.795Z,4.80
2019-01-28T08:15:20.055Z,4.80
2019-01-28T08:17:49.233Z,4.70
2019-01-28T08:20:19.317Z,4.70
2019-01-28T08:22:48.360Z,4.70
2019-01-28T08:25:18.569Z,4.70
2019-01-28T08:27:47.658Z,4.60
2019-01-28T08:30:19.656Z,4.60
2019-01-28T08:32:48.590Z,4.60
2019-01-28T08:35:17.582Z,4.60
2019-01-28T08:37:46.636Z,4.60
2019-01-28T08:40:15.762Z,4.60
2019-01-28T08:42:47.530Z,4.60
2019-01-28T08:45:16.542Z,4.60
2019-01-28T08:47:45.572Z,4.60
2019-01-28T08:50:17.226Z,4.60
2019-01-28T08:52:46.292Z,4.60
2019-01-28T08:55:17.399Z,4.60
2019-01-28T08:57:46.408Z,4.60
2019-01-28T09:00:21.382Z,4.60
2019-01-28T09:02:50.322Z,4.60
2019-01-28T09:05:19.785Z,4.60
2019-01-28T09:07:48.824Z,4.60
2019-01-28T09:10:18.572Z,4.60
2019-01-28T09:12:47.663Z,4.60
2019-01-28T09:15:18.098Z,4.60
2019-01-28T09:17:47.181Z,4.60
2019-01-28T09:20:18.225Z,4.60
2019-01-28T09:22:47.255Z,4.60
2019-01-28T09:25:16.319Z,4.60
2019-01-28T09:27:45.333Z,4.60
2019-01-28T09:30:20.273Z,4.50
2019-01-28T09:32:49.291Z,4.50
2019-01-28T09:35:18.303Z,4.50
2019-01-28T09:37:47.265Z,4.50
2019-01-28T09:40:18.357Z,4.50
2019-01-28T09:42:47.359Z,4.50
2019-01-28T09:45:24.565Z,4.50
2019-01-28T09:47:53.634Z,4.50
2019-01-28T09:50:22.579Z,4.40
2019-01-28T09:52:51.879Z,4.40
2019-01-28T09:55:20.871Z,4.40
2019-01-28T09:57:49.897Z,4.50
2019-01-28T10:00:31.953Z,4.50
2019-01-28T10:03:01.298Z,4.50
2019-01-28T10:05:30.390Z,4.50
2019-01-28T10:07:59.482Z,4.50
2019-01-28T10:10:28.469Z,4.50
2019-01-28T10:12:57.428Z,4.60
2019-01-28T10:15:28.623Z,4.60
2019-01-28T10:17:57.444Z,4.70
2019-01-28T10:20:31.638Z,4.70
2019-01-28T10:23:00.658Z,4.80
2019-01-28T10:25:29.682Z,4.80
2019-01-28T10:27:58.791Z,4.90
2019-01-28T10:30:30.376Z,4.90
2019-01-28T10:32:59.540Z,4.90
2019-01-28T10:35:29.833Z,4.90
2019-01-28T10:37:58.880Z,4.90
2019-01-28T10:40:29.684Z,4.90
2019-01-28T10:42:59.154Z,4.90
2019-01-28T10:45:28.162Z,4.90
2019-01-28T10:48:00.665Z,4.90
2019-01-28T10:50:28.509Z,4.80
2019-01-28T10:52:57.779Z,4.80
2019-01-28T10:55:26.803Z,4.70
2019-01-28T10:57:56.059Z,4.70
2019-01-28T11:00:27.610Z,4.60
2019-01-28T11:02:56.657Z,4.60
2019-01-28T11:05:25.611Z,4.50
2019-01-28T11:07:54.653Z,4.50
2019-01-28T11:10:23.776Z,4.40
2019-01-28T11:12:52.907Z,4.40
2019-01-28T11:15:23.839Z,4.50
2019-01-28T11:17:53.221Z,4.50
2019-01-28T11:20:22.522Z,4.50
2019-01-28T11:22:52.065Z,4.50
2019-01-28T11:25:23.419Z,4.40
2019-01-28T11:27:52.489Z,4.40
2019-01-28T11:30:35.836Z,4.40
2019-01-28T11:33:04.886Z,4.50
2019-01-28T11:35:35.636Z,4.50
2019-01-28T11:38:05.521Z,4.60
2019-01-28T11:40:35.034Z,4.60
2019-01-28T11:43:04.297Z,4.70
2019-01-28T11:45:35.831Z,4.70
2019-01-28T11:48:05.832Z,4.70
2019-01-28T11:50:34.947Z,4.70
2019-01-28T11:53:03.964Z,4.70
2019-01-28T11:55:33.162Z,4.70
2019-01-28T11:58:02.164Z,4.70
2019-01-28T12:01:10.245Z,4.80
2019-01-28T12:03:39.322Z,4.80
2019-01-28T12:06:08.341Z,4.90
2019-01-28T12:08:37.452Z,4.90
2019-01-28T12:11:06.526Z,4.90
2019-01-28T12:13:35.499Z,4.90
2019-01-28T12:16:04.549Z,4.90
2019-01-28T12:18:33.647Z,4.80
2019-01-28T12:21:02.784Z,4.80
2019-01-28T12:23:34.539Z,4.80
2019-01-28T12:26:02.675Z,4.90
2019-01-28T12:28:31.669Z,5.00
2019-01-28T12:31:00.649Z,5.10
2019-01-28T12:33:29.639Z,5.20
2019-01-28T12:35:58.591Z,5.20
2019-01-28T12:38:27.602Z,5.20
2019-01-28T12:40:56.623Z,5.30
2019-01-28T12:43:25.690Z,5.40
2019-01-28T12:45:54.651Z,5.40
2019-01-28T12:48:26.881Z,5.50
2019-01-28T12:50:55.877Z,5.50
2019-01-28T12:53:24.975Z,5.50
2019-01-28T12:55:54.070Z,5.50
2019-01-28T12:58:23.270Z,5.50
2019-01-28T13:00:56.430Z,5.50
2019-01-28T13:03:25.454Z,5.60
2019-01-28T13:05:54.526Z,5.60
2019-01-28T13:08:23.644Z,5.50
2019-01-28T13:10:52.705Z,5.50
2019-01-28T13:13:21.754Z,5.50
2019-01-28T13:15:50.831Z,5.50
2019-01-28T13:18:19.847Z,5.40
2019-01-28T13:20:48.952Z,5.40
2019-01-28T13:23:18.120Z,5.40
2019-01-28T13:25:47.214Z,5.40
2019-01-28T13:28:16.292Z,5.40
2019-01-28T13:30:45.342Z,5.40
2019-01-28T13:33:16.164Z,5.40
2019-01-28T13:35:45.176Z,5.40
2019-01-28T13:38:14.227Z,5.50
2019-01-28T13:40:43.350Z,5.50
2019-01-28T13:43:12.566Z,5.60
2019-01-28T13:45:41.600Z,5.60
2019-01-28T13:48:12.920Z,5.70
2019-01-28T13:50:41.973Z,5.70
2019-01-28T13:53:10.979Z,5.80
2019-01-28T13:55:39.910Z,5.80
2019-01-28T13:58:08.937Z,5.90
2019-01-28T14:00:38.041Z,6.00
2019-01-28T14:03:07.126Z,6.00
2019-01-28T14:05:36.303Z,6.10
2019-01-28T14:08:05.428Z,6.10
2019-01-28T14:10:34.457Z,6.00
2019-01-28T14:13:03.475Z,6.00
2019-01-28T14:15:37.419Z,5.90
2019-01-28T14:18:08.207Z,5.90
2019-01-28T14:20:39.805Z,6.00
2019-01-28T14:23:08.872Z,6.00
2019-01-28T14:25:37.932Z,5.90
2019-01-28T14:28:08.009Z,6.00
2019-01-28T14:30:47.984Z,5.90
2019-01-28T14:33:17.134Z,5.90
2019-01-28T14:35:46.142Z,6.00
2019-01-28T14:38:15.549Z,5.90
2019-01-28T14:40:45.905Z,5.90
2019-01-28T14:43:14.874Z,5.90
2019-01-28T14:45:43.887Z,5.90
2019-01-28T14:48:13.803Z,6.00
2019-01-28T14:50:42.774Z,6.00
2019-01-28T14:53:11.948Z,6.00
2019-01-28T14:55:40.986Z,6.00
2019-01-28T14:58:16.344Z,6.00
2019-01-28T15:00:44.628Z,6.00
2019-01-28T15:03:13.701Z,6.00
2019-01-28T15:05:44.961Z,6.00
2019-01-28T15:08:14.680Z,6.10
2019-01-28T15:10:43.721Z,6.00
2019-01-28T15:13:12.845Z,6.00
2019-01-28T15:15:41.999Z,6.00
2019-01-28T15:18:13.638Z,6.00
2019-01-28T15:20:42.706Z,5.90
2019-01-28T15:23:11.745Z,5.90
2019-01-28T15:25:40.748Z,5.90
2019-01-28T15:28:09.683Z,5.80
2019-01-28T15:30:38.939Z,5.70
2019-01-28T15:33:07.971Z,5.70
2019-01-28T15:35:38.215Z,5.60
2019-01-28T15:38:07.315Z,5.60
2019-01-28T15:40:36.664Z,5.50
2019-01-28T15:43:06.245Z,5.50
2019-01-28T15:45:38.133Z,5.50
2019-01-28T15:48:07.573Z,5.40
2019-01-28T15:50:36.671Z,5.40
2019-01-28T15:53:06.342Z,5.00
2019-01-28T15:55:37.353Z,4.80
2019-01-28T15:58:08.527Z,4.60
2019-01-28T16:00:37.894Z,4.30
2019-01-28T16:03:08.861Z,4.20
2019-01-28T16:05:39.826Z,4.10
2019-01-28T16:08:08.907Z,4.00
2019-01-28T16:10:37.916Z,3.90
2019-01-28T16:13:06.874Z,3.90
2019-01-28T16:15:41.095Z,3.90
2019-01-28T16:18:10.470Z,4.00
2019-01-28T16:20:39.870Z,4.00
2019-01-28T16:23:09.129Z,4.00
2019-01-28T16:25:38.208Z,4.00
2019-01-28T16:28:07.509Z,3.90
2019-01-28T16:30:36.823Z,3.90
2019-01-28T16:33:06.543Z,3.80
2019-01-28T16:35:35.918Z,3.70
2019-01-28T16:38:06.094Z,3.60
2019-01-28T16:40:35.870Z,3.50
2019-01-28T16:43:04.846Z,3.50
2019-01-28T16:45:33.855Z,3.50
2019-01-28T16:48:03.273Z,3.40
2019-01-28T16:50:32.370Z,3.30
2019-01-28T16:53:01.576Z,3.30
2019-01-28T16:55:32.018Z,3.40
2019-01-28T16:58:01.088Z,3.40
2019-01-28T17:00:43.266Z,3.30
2019-01-28T17:03:13.519Z,3.30
2019-01-28T17:05:44.688Z,3.30
2019-01-28T17:08:13.810Z,3.30
2019-01-28T17:10:42.855Z,3.40
2019-01-28T17:13:11.861Z,3.40
2019-01-28T17:15:40.975Z,3.40
2019-01-28T17:18:10.075Z,3.40
2019-01-28T17:20:39.032Z,3.40
2019-01-28T17:23:08.002Z,3.40
2019-01-28T17:25:39.991Z,3.40
2019-01-28T17:28:09.059Z,3.30
2019-01-28T17:30:40.147Z,3.30
2019-01-28T17:33:09.243Z,3.30
2019-01-28T17:35:38.523Z,3.30
2019-01-28T17:38:09.080Z,3.30
2019-01-28T17:40:39.051Z,3.30
2019-01-28T17:43:09.374Z,3.30
2019-01-28T17:45:38.574Z,3.30
2019-01-28T17:48:08.508Z,3.20
2019-01-28T17:50:43.268Z,3.20
2019-01-28T17:53:08.446Z,3.30
2019-01-28T17:55:37.548Z,3.20
2019-01-28T17:58:07.960Z,3.20
2019-01-28T18:00:41.479Z,3.20
2019-01-28T18:03:10.686Z,3.20
2019-01-28T18:05:39.768Z,3.10
2019-01-28T18:08:08.931Z,3.10
2019-01-28T18:10:38.548Z,3.10
2019-01-28T18:13:07.578Z,3.10
2019-01-28T18:15:38.158Z,3.10
2019-01-28T18:18:07.252Z,3.20
2019-01-28T18:20:36.290Z,3.30
2019-01-28T18:23:05.518Z,3.30
2019-01-28T18:25:34.857Z,3.30
2019-01-28T18:28:04.191Z,3.30
2019-01-28T18:30:52.571Z,3.30
2019-01-28T18:33:21.916Z,3.20
2019-01-28T18:35:51.139Z,3.20
2019-01-28T18:38:20.349Z,3.10
2019-01-28T18:41:08.602Z,3.00
2019-01-28T18:43:39.711Z,3.00
2019-01-28T18:46:08.921Z,3.00
2019-01-28T18:48:38.039Z,2.90
2019-01-28T18:51:07.137Z,2.90
2019-01-28T18:53:36.179Z,2.90
2019-01-28T18:56:06.287Z,2.90
2019-01-28T18:58:35.475Z,2.80
2019-01-28T19:01:04.836Z,2.80
2019-01-28T19:03:53.194Z,2.80
2019-01-28T19:06:44.341Z,2.80
2019-01-28T19:09:27.835Z,2.80
2019-01-28T19:14:55.646Z,2.80
2019-01-28T19:17:49.662Z,2.70
2019-01-28T19:20:39.034Z,2.70
2019-01-28T19:23:08.031Z,2.60
2019-01-28T19:25:37.170Z,2.60
2019-01-28T19:28:06.352Z,2.50
2019-01-28T19:30:35.564Z,2.50
2019-01-28T19:33:04.866Z,2.40
2019-01-28T19:35:33.932Z,2.30
2019-01-28T19:38:03.042Z,2.30
2019-01-28T19:40:32.052Z,2.20
2019-01-28T19:43:01.126Z,2.20
2019-01-28T19:45:31.543Z,2.20
2019-01-28T19:48:02.979Z,2.20
2019-01-28T19:50:32.094Z,2.10
2019-01-28T19:53:01.205Z,2.10
2019-01-28T19:55:31.552Z,2.10
2019-01-28T19:58:00.758Z,2.00
2019-01-28T20:00:29.787Z,1.90
2019-01-28T20:03:01.181Z,1.90
2019-01-28T20:05:30.386Z,1.90
2019-01-28T20:08:01.487Z,1.90
2019-01-28T20:10:30.537Z,1.90
2019-01-28T20:12:59.755Z,1.90
2019-01-28T20:15:28.880Z,1.90
2019-01-28T20:17:58.035Z,2.00
2019-01-28T20:20:27.207Z,2.00
2019-01-28T20:22:56.345Z,2.00
2019-01-28T20:25:25.583Z,2.00
2019-01-28T20:27:54.833Z,2.00
2019-01-28T20:30:25.725Z,2.00
2019-01-28T20:32:54.906Z,2.00
2019-01-28T20:35:24.012Z,2.00
2019-01-28T20:37:53.036Z,1.90
2019-01-28T20:40:22.136Z,2.00
2019-01-28T20:42:51.379Z,2.20
2019-01-28T20:45:21.963Z,2.20
2019-01-28T20:47:51.149Z,2.30
2019-01-28T20:50:22.646Z,2.30
2019-01-28T20:52:51.838Z,2.40
2019-01-28T20:55:21.254Z,2.40
2019-01-28T20:57:50.334Z,2.30
2019-01-28T21:00:21.548Z,2.30
2019-01-28T21:02:50.771Z,2.30
2019-01-28T21:05:20.229Z,2.20
2019-01-28T21:07:49.203Z,2.20
2019-01-28T21:10:19.410Z,2.10
2019-01-28T21:12:48.698Z,2.20
2019-01-28T21:15:17.804Z,2.20
2019-01-28T21:17:47.308Z,2.20
2019-01-28T21:20:17.536Z,2.20
2019-01-28T21:22:46.996Z,2.30
2019-01-28T21:25:18.662Z,2.30
2019-01-28T21:27:47.819Z,2.30
2019-01-28T21:30:22.909Z,2.30
2019-01-28T21:33:11.108Z,2.30
2019-01-28T21:35:58.063Z,2.20
2019-01-28T21:38:31.591Z,2.20
2019-01-28T21:41:00.614Z,2.30
2019-01-28T21:43:29.939Z,2.20
2019-01-28T21:45:58.999Z,2.30
2019-01-28T21:48:28.008Z,2.20
2019-01-28T21:50:57.083Z,2.10
2019-01-28T21:53:26.097Z,2.10
2019-01-28T21:55:55.106Z,2.10
2019-01-28T21:58:27.325Z,2.10
2019-01-28T22:00:56.496Z,2.10
2019-01-28T22:03:25.532Z,2.00
2019-01-28T22:05:54.605Z,1.90
2019-01-28T22:08:23.594Z,2.00
2019-01-28T22:10:52.612Z,1.90
2019-01-28T22:13:21.588Z,1.80
2019-01-28T22:15:50.634Z,1.80
2019-01-28T22:18:19.628Z,1.80
2019-01-28T22:20:48.688Z,1.70
2019-01-28T22:23:17.862Z,1.60
2019-01-28T22:25:46.888Z,1.60
2019-01-28T22:28:16.000Z,1.50
2019-01-28T22:30:46.256Z,1.50
2019-01-28T22:33:15.292Z,1.40
2019-01-28T22:35:44.278Z,1.40
2019-01-28T22:38:13.644Z,1.30
2019-01-28T22:40:42.696Z,1.30
2019-01-28T22:43:11.626Z,1.30
2019-01-28T22:45:40.611Z,1.40
2019-01-28T22:48:09.678Z,1.50
2019-01-28T22:50:38.762Z,1.40
2019-01-28T22:53:07.904Z,1.50
2019-01-28T22:55:36.968Z,1.40
2019-01-28T22:58:06.057Z,1.40
2019-01-28T23:00:52.182Z,1.30
2019-01-28T23:03:23.401Z,1.30
2019-01-28T23:05:52.484Z,1.30
2019-01-28T23:08:21.430Z,1.30
2019-01-28T23:10:50.498Z,1.30
2019-01-28T23:13:19.509Z,1.30
2019-01-28T23:15:48.679Z,1.30
2019-01-28T23:18:17.705Z,1.30
2019-01-28T23:20:46.703Z,1.30
2019-01-28T23:23:15.745Z,1.20
2019-01-28T23:25:44.750Z,1.20
2019-01-28T23:28:13.773Z,1.20
2019-01-28T23:30:42.822Z,1.20
2019-01-28T23:33:11.827Z,1.20
2019-01-28T23:35:40.776Z,1.10
2019-01-28T23:38:09.822Z,1.10
2019-01-28T23:40:38.844Z,1.10
2019-01-28T23:43:07.789Z,1.10
2019-01-28T23:45:36.836Z,1.10
2019-01-28T23:48:05.837Z,1.10
2019-01-28T23:50:34.972Z,1.10
2019-01-28T23:53:04.114Z,1.10
2019-01-28T23:55:33.260Z,1.10
2019-01-28T23:58:10.811Z,1.10
